sensor_id;sensor_type;location;lat;lon;timestamp;P1;durP1;ratioP1;P2;durP2;ratioP2
10216;SDS011;5152;59.674;16.838;2022-07-03T00:00:24;3.33;;;1.77;;
10216;SDS011;5152;59.674;16.838;2022-07-03T00:02:51;3.97;;;1.60;;
10216;SDS011;5152;59.674;16.838;2022-07-03T00:05:17;4.50;;;1.60;;
10216;SDS011;5152;59.674;16.838;2022-07-03T00:07:46;5.40;;;1.80;;
10216;SDS011;5152;59.674;16.838;2022-07-03T00:10:12;1.50;;;1.40;;
10216;SDS011;5152;59.674;16.838;2022-07-03T00:12:39;5.20;;;1.97;;
10216;SDS011;5152;59.674;16.838;2022-07-03T00:15:06;4.77;;;1.80;;
10216;SDS011;5152;59.674;16.838;2022-07-03T00:17:34;8.67;;;2.20;;
10216;SDS011;5152;59.674;16.838;2022-07-03T00:20:01;4.57;;;1.93;;
10216;SDS011;5152;59.674;16.838;2022-07-03T00:22:27;7.33;;;1.83;;
10216;SDS011;5152;59.674;16.838;2022-07-03T00:25:00;4.67;;;1.83;;
10216;SDS011;5152;59.674;16.838;2022-07-03T00:27:29;9.30;;;2.60;;
10216;SDS011;5152;59.674;16.838;2022-07-03T00:29:58;4.20;;;2.27;;
10216;SDS011;5152;59.674;16.838;2022-07-03T00:32:26;2.37;;;1.83;;
10216;SDS011;5152;59.674;16.838;2022-07-03T00:34:54;3.60;;;2.00;;
10216;SDS011;5152;59.674;16.838;2022-07-03T00:37:22;4.83;;;1.70;;
10216;SDS011;5152;59.674;16.838;2022-07-03T00:39:50;5.13;;;1.90;;
10216;SDS011;5152;59.674;16.838;2022-07-03T00:42:18;6.17;;;2.10;;
10216;SDS011;5152;59.674;16.838;2022-07-03T00:44:46;4.93;;;1.97;;
10216;SDS011;5152;59.674;16.838;2022-07-03T00:47:13;8.57;;;2.13;;
10216;SDS011;5152;59.674;16.838;2022-07-03T00:49:41;10.47;;;2.73;;
10216;SDS011;5152;59.674;16.838;2022-07-03T00:52:11;6.53;;;2.37;;
10216;SDS011;5152;59.674;16.838;2022-07-03T00:54:41;4.00;;;1.80;;
10216;SDS011;5152;59.674;16.838;2022-07-03T00:57:13;6.90;;;2.40;;
10216;SDS011;5152;59.674;16.838;2022-07-03T00:59:42;7.83;;;2.20;;
10216;SDS011;5152;59.674;16.838;2022-07-03T01:02:13;4.47;;;2.03;;
10216;SDS011;5152;59.674;16.838;2022-07-03T01:04:45;5.10;;;1.77;;
10216;SDS011;5152;59.674;16.838;2022-07-03T01:07:18;3.47;;;2.30;;
10216;SDS011;5152;59.674;16.838;2022-07-03T01:09:56;3.10;;;2.20;;
10216;SDS011;5152;59.674;16.838;2022-07-03T01:12:31;7.03;;;2.17;;
10216;SDS011;5152;59.674;16.838;2022-07-03T01:15:11;6.10;;;2.23;;
10216;SDS011;5152;59.674;16.838;2022-07-03T01:17:52;3.40;;;2.27;;
10216;SDS011;5152;59.674;16.838;2022-07-03T01:20:22;2.43;;;2.20;;
10216;SDS011;5152;59.674;16.838;2022-07-03T01:22:54;3.73;;;2.10;;
10216;SDS011;5152;59.674;16.838;2022-07-03T01:25:22;5.63;;;2.13;;
10216;SDS011;5152;59.674;16.838;2022-07-03T01:27:59;5.93;;;2.20;;
10216;SDS011;5152;59.674;16.838;2022-07-03T01:30:33;6.00;;;1.97;;
10216;SDS011;5152;59.674;16.838;2022-07-03T01:33:02;4.53;;;2.27;;
10216;SDS011;5152;59.674;16.838;2022-07-03T01:35:32;3.83;;;2.20;;
10216;SDS011;5152;59.674;16.838;2022-07-03T01:38:06;3.00;;;2.20;;
10216;SDS011;5152;59.674;16.838;2022-07-03T01:40:36;2.37;;;1.70;;
10216;SDS011;5152;59.674;16.838;2022-07-03T01:43:05;4.20;;;2.03;;
10216;SDS011;5152;59.674;16.838;2022-07-03T01:45:35;2.20;;;1.70;;
10216;SDS011;5152;59.674;16.838;2022-07-03T01:48:04;5.90;;;2.10;;
10216;SDS011;5152;59.674;16.838;2022-07-03T01:50:32;2.53;;;1.90;;
10216;SDS011;5152;59.674;16.838;2022-07-03T01:52:59;4.07;;;1.70;;
10216;SDS011;5152;59.674;16.838;2022-07-03T01:55:29;5.23;;;2.03;;
10216;SDS011;5152;59.674;16.838;2022-07-03T01:57:56;5.23;;;2.57;;
10216;SDS011;5152;59.674;16.838;2022-07-03T02:00:25;5.00;;;2.10;;
10216;SDS011;5152;59.674;16.838;2022-07-03T02:02:55;3.63;;;2.00;;
10216;SDS011;5152;59.674;16.838;2022-07-03T02:05:31;5.03;;;2.10;;
10216;SDS011;5152;59.674;16.838;2022-07-03T02:08:15;5.83;;;2.30;;
10216;SDS011;5152;59.674;16.838;2022-07-03T02:10:52;6.67;;;1.93;;
10216;SDS011;5152;59.674;16.838;2022-07-03T02:13:28;3.53;;;1.83;;
10216;SDS011;5152;59.674;16.838;2022-07-03T02:15:58;6.50;;;2.47;;
10216;SDS011;5152;59.674;16.838;2022-07-03T02:18:26;4.30;;;2.33;;
10216;SDS011;5152;59.674;16.838;2022-07-03T02:21:03;3.17;;;1.80;;
10216;SDS011;5152;59.674;16.838;2022-07-03T02:23:34;4.07;;;1.70;;
10216;SDS011;5152;59.674;16.838;2022-07-03T02:26:03;3.10;;;2.03;;
10216;SDS011;5152;59.674;16.838;2022-07-03T02:28:34;3.33;;;2.07;;
10216;SDS011;5152;59.674;16.838;2022-07-03T02:31:18;4.37;;;1.93;;
10216;SDS011;5152;59.674;16.838;2022-07-03T02:33:47;4.70;;;1.90;;
10216;SDS011;5152;59.674;16.838;2022-07-03T02:36:15;2.57;;;2.07;;
10216;SDS011;5152;59.674;16.838;2022-07-03T02:38:43;4.23;;;2.17;;
10216;SDS011;5152;59.674;16.838;2022-07-03T02:41:12;3.93;;;2.40;;
10216;SDS011;5152;59.674;16.838;2022-07-03T02:43:42;2.53;;;1.97;;
10216;SDS011;5152;59.674;16.838;2022-07-03T02:46:14;3.67;;;2.27;;
10216;SDS011;5152;59.674;16.838;2022-07-03T02:49:07;4.80;;;2.20;;
10216;SDS011;5152;59.674;16.838;2022-07-03T02:51:41;5.30;;;2.50;;
10216;SDS011;5152;59.674;16.838;2022-07-03T02:54:12;5.10;;;2.10;;
10216;SDS011;5152;59.674;16.838;2022-07-03T02:56:43;3.40;;;1.73;;
10216;SDS011;5152;59.674;16.838;2022-07-03T02:59:32;6.60;;;2.10;;
10216;SDS011;5152;59.674;16.838;2022-07-03T03:02:06;4.43;;;2.10;;
10216;SDS011;5152;59.674;16.838;2022-07-03T03:04:37;3.67;;;1.90;;
10216;SDS011;5152;59.674;16.838;2022-07-03T03:07:08;3.53;;;1.97;;
10216;SDS011;5152;59.674;16.838;2022-07-03T03:09:40;8.97;;;2.33;;
10216;SDS011;5152;59.674;16.838;2022-07-03T03:12:08;3.37;;;1.93;;
10216;SDS011;5152;59.674;16.838;2022-07-03T03:14:37;3.90;;;2.30;;
10216;SDS011;5152;59.674;16.838;2022-07-03T03:17:06;6.83;;;2.30;;
10216;SDS011;5152;59.674;16.838;2022-07-03T03:19:35;2.23;;;2.03;;
10216;SDS011;5152;59.674;16.838;2022-07-03T03:22:07;5.23;;;2.17;;
10216;SDS011;5152;59.674;16.838;2022-07-03T03:24:38;6.53;;;2.00;;
10216;SDS011;5152;59.674;16.838;2022-07-03T03:27:05;2.73;;;1.97;;
10216;SDS011;5152;59.674;16.838;2022-07-03T03:29:32;2.67;;;2.20;;
10216;SDS011;5152;59.674;16.838;2022-07-03T03:31:59;2.87;;;1.83;;
10216;SDS011;5152;59.674;16.838;2022-07-03T03:34:26;4.17;;;2.10;;
10216;SDS011;5152;59.674;16.838;2022-07-03T03:36:54;5.37;;;2.37;;
10216;SDS011;5152;59.674;16.838;2022-07-03T03:39:21;3.53;;;2.00;;
10216;SDS011;5152;59.674;16.838;2022-07-03T03:41:47;5.23;;;2.00;;
10216;SDS011;5152;59.674;16.838;2022-07-03T03:44:15;3.30;;;2.00;;
10216;SDS011;5152;59.674;16.838;2022-07-03T03:46:41;2.03;;;1.73;;
10216;SDS011;5152;59.674;16.838;2022-07-03T03:49:08;3.70;;;2.07;;
10216;SDS011;5152;59.674;16.838;2022-07-03T03:51:35;4.87;;;2.17;;
10216;SDS011;5152;59.674;16.838;2022-07-03T03:54:03;6.50;;;1.80;;
10216;SDS011;5152;59.674;16.838;2022-07-03T03:56:30;2.63;;;1.70;;
10216;SDS011;5152;59.674;16.838;2022-07-03T03:58:57;2.97;;;1.87;;
10216;SDS011;5152;59.674;16.838;2022-07-03T04:01:23;3.33;;;1.70;;
10216;SDS011;5152;59.674;16.838;2022-07-03T04:03:50;4.53;;;2.10;;
10216;SDS011;5152;59.674;16.838;2022-07-03T04:06:18;5.67;;;2.17;;
10216;SDS011;5152;59.674;16.838;2022-07-03T04:08:45;3.73;;;1.70;;
10216;SDS011;5152;59.674;16.838;2022-07-03T04:11:13;3.30;;;2.20;;
10216;SDS011;5152;59.674;16.838;2022-07-03T04:13:40;3.80;;;1.90;;
10216;SDS011;5152;59.674;16.838;2022-07-03T04:16:07;4.50;;;2.13;;
10216;SDS011;5152;59.674;16.838;2022-07-03T04:18:34;5.63;;;2.30;;
10216;SDS011;5152;59.674;16.838;2022-07-03T04:21:01;6.67;;;2.20;;
10216;SDS011;5152;59.674;16.838;2022-07-03T04:23:27;9.67;;;2.00;;
10216;SDS011;5152;59.674;16.838;2022-07-03T04:25:54;4.00;;;1.60;;
10216;SDS011;5152;59.674;16.838;2022-07-03T04:28:22;5.67;;;1.57;;
10216;SDS011;5152;59.674;16.838;2022-07-03T04:30:49;2.40;;;1.63;;
10216;SDS011;5152;59.674;16.838;2022-07-03T04:33:16;4.60;;;1.80;;
10216;SDS011;5152;59.674;16.838;2022-07-03T04:35:42;3.30;;;1.73;;
10216;SDS011;5152;59.674;16.838;2022-07-03T04:38:10;3.47;;;1.80;;
10216;SDS011;5152;59.674;16.838;2022-07-03T04:40:36;6.53;;;2.00;;
10216;SDS011;5152;59.674;16.838;2022-07-03T04:43:03;2.87;;;1.50;;
10216;SDS011;5152;59.674;16.838;2022-07-03T04:45:31;6.00;;;1.60;;
10216;SDS011;5152;59.674;16.838;2022-07-03T04:47:58;3.97;;;1.80;;
10216;SDS011;5152;59.674;16.838;2022-07-03T04:50:25;6.90;;;2.00;;
10216;SDS011;5152;59.674;16.838;2022-07-03T04:52:51;4.90;;;1.97;;
10216;SDS011;5152;59.674;16.838;2022-07-03T04:55:18;9.97;;;1.90;;
10216;SDS011;5152;59.674;16.838;2022-07-03T04:57:45;2.10;;;1.60;;
10216;SDS011;5152;59.674;16.838;2022-07-03T05:00:12;4.47;;;1.23;;
10216;SDS011;5152;59.674;16.838;2022-07-03T05:02:40;2.77;;;1.60;;
10216;SDS011;5152;59.674;16.838;2022-07-03T05:05:07;3.03;;;1.50;;
10216;SDS011;5152;59.674;16.838;2022-07-03T05:07:34;4.30;;;1.90;;
10216;SDS011;5152;59.674;16.838;2022-07-03T05:10:02;4.10;;;1.50;;
10216;SDS011;5152;59.674;16.838;2022-07-03T05:12:29;6.23;;;1.80;;
10216;SDS011;5152;59.674;16.838;2022-07-03T05:14:56;3.07;;;1.70;;
10216;SDS011;5152;59.674;16.838;2022-07-03T05:17:22;3.70;;;1.83;;
10216;SDS011;5152;59.674;16.838;2022-07-03T05:19:51;3.87;;;2.00;;
10216;SDS011;5152;59.674;16.838;2022-07-03T05:22:38;4.03;;;1.77;;
10216;SDS011;5152;59.674;16.838;2022-07-03T05:25:05;4.17;;;1.90;;
10216;SDS011;5152;59.674;16.838;2022-07-03T05:27:34;4.00;;;1.70;;
10216;SDS011;5152;59.674;16.838;2022-07-03T05:30:02;2.80;;;1.37;;
10216;SDS011;5152;59.674;16.838;2022-07-03T05:32:29;3.57;;;1.83;;
10216;SDS011;5152;59.674;16.838;2022-07-03T05:34:57;5.63;;;1.90;;
10216;SDS011;5152;59.674;16.838;2022-07-03T05:37:24;3.13;;;1.63;;
10216;SDS011;5152;59.674;16.838;2022-07-03T05:39:51;6.10;;;1.70;;
10216;SDS011;5152;59.674;16.838;2022-07-03T05:42:18;4.07;;;1.90;;
10216;SDS011;5152;59.674;16.838;2022-07-03T05:44:45;2.77;;;1.30;;
10216;SDS011;5152;59.674;16.838;2022-07-03T05:47:11;4.80;;;1.77;;
10216;SDS011;5152;59.674;16.838;2022-07-03T05:49:38;2.40;;;1.30;;
10216;SDS011;5152;59.674;16.838;2022-07-03T05:52:07;5.73;;;1.43;;
10216;SDS011;5152;59.674;16.838;2022-07-03T05:54:34;1.43;;;1.33;;
10216;SDS011;5152;59.674;16.838;2022-07-03T05:57:00;2.93;;;1.70;;
10216;SDS011;5152;59.674;16.838;2022-07-03T05:59:27;7.33;;;1.80;;
10216;SDS011;5152;59.674;16.838;2022-07-03T06:01:54;7.17;;;1.57;;
10216;SDS011;5152;59.674;16.838;2022-07-03T06:04:20;4.37;;;1.77;;
10216;SDS011;5152;59.674;16.838;2022-07-03T06:06:47;2.13;;;1.40;;
10216;SDS011;5152;59.674;16.838;2022-07-03T06:09:15;6.13;;;1.40;;
10216;SDS011;5152;59.674;16.838;2022-07-03T06:11:42;4.13;;;1.67;;
10216;SDS011;5152;59.674;16.838;2022-07-03T06:14:08;8.10;;;2.10;;
10216;SDS011;5152;59.674;16.838;2022-07-03T06:16:35;2.33;;;1.33;;
10216;SDS011;5152;59.674;16.838;2022-07-03T06:19:02;8.03;;;1.80;;
10216;SDS011;5152;59.674;16.838;2022-07-03T06:21:29;3.13;;;1.50;;
10216;SDS011;5152;59.674;16.838;2022-07-03T06:23:55;6.03;;;1.73;;
10216;SDS011;5152;59.674;16.838;2022-07-03T06:26:24;5.77;;;1.90;;
10216;SDS011;5152;59.674;16.838;2022-07-03T06:28:50;2.67;;;1.50;;
10216;SDS011;5152;59.674;16.838;2022-07-03T06:31:17;4.43;;;1.80;;
10216;SDS011;5152;59.674;16.838;2022-07-03T06:33:44;5.60;;;1.87;;
10216;SDS011;5152;59.674;16.838;2022-07-03T06:36:11;4.83;;;1.80;;
10216;SDS011;5152;59.674;16.838;2022-07-03T06:38:38;7.20;;;1.60;;
10216;SDS011;5152;59.674;16.838;2022-07-03T06:41:04;3.33;;;1.50;;
10216;SDS011;5152;59.674;16.838;2022-07-03T06:43:32;3.83;;;1.47;;
10216;SDS011;5152;59.674;16.838;2022-07-03T06:45:59;8.00;;;1.90;;
10216;SDS011;5152;59.674;16.838;2022-07-03T06:48:26;6.23;;;1.70;;
10216;SDS011;5152;59.674;16.838;2022-07-03T06:50:53;9.47;;;1.83;;
10216;SDS011;5152;59.674;16.838;2022-07-03T06:53:19;6.60;;;1.73;;
10216;SDS011;5152;59.674;16.838;2022-07-03T06:55:46;4.43;;;1.60;;
10216;SDS011;5152;59.674;16.838;2022-07-03T06:58:13;7.97;;;1.83;;
10216;SDS011;5152;59.674;16.838;2022-07-03T07:00:41;5.30;;;1.60;;
10216;SDS011;5152;59.674;16.838;2022-07-03T07:03:08;5.30;;;1.80;;
10216;SDS011;5152;59.674;16.838;2022-07-03T07:05:35;3.13;;;1.38;;
10216;SDS011;5152;59.674;16.838;2022-07-03T07:08:02;4.18;;;1.30;;
10216;SDS011;5152;59.674;16.838;2022-07-03T07:10:29;6.30;;;1.50;;
10216;SDS011;5152;59.674;16.838;2022-07-03T07:12:55;4.10;;;1.60;;
10216;SDS011;5152;59.674;16.838;2022-07-03T07:15:22;7.10;;;1.90;;
10216;SDS011;5152;59.674;16.838;2022-07-03T07:17:50;5.15;;;1.77;;
10216;SDS011;5152;59.674;16.838;2022-07-03T07:20:17;3.90;;;1.67;;
10216;SDS011;5152;59.674;16.838;2022-07-03T07:22:43;3.03;;;1.50;;
10216;SDS011;5152;59.674;16.838;2022-07-03T07:25:10;7.23;;;1.77;;
10216;SDS011;5152;59.674;16.838;2022-07-03T07:27:37;3.93;;;1.40;;
10216;SDS011;5152;59.674;16.838;2022-07-03T07:30:04;3.63;;;1.53;;
10216;SDS011;5152;59.674;16.838;2022-07-03T07:32:31;7.70;;;1.83;;
10216;SDS011;5152;59.674;16.838;2022-07-03T07:34:59;7.07;;;1.50;;
10216;SDS011;5152;59.674;16.838;2022-07-03T07:37:26;4.87;;;1.37;;
10216;SDS011;5152;59.674;16.838;2022-07-03T07:39:52;5.00;;;1.20;;
10216;SDS011;5152;59.674;16.838;2022-07-03T07:42:19;4.30;;;1.53;;
10216;SDS011;5152;59.674;16.838;2022-07-03T07:44:46;4.47;;;1.80;;
10216;SDS011;5152;59.674;16.838;2022-07-03T07:47:13;3.97;;;1.27;;
10216;SDS011;5152;59.674;16.838;2022-07-03T07:49:40;5.80;;;1.40;;
10216;SDS011;5152;59.674;16.838;2022-07-03T07:52:08;5.82;;;1.42;;
10216;SDS011;5152;59.674;16.838;2022-07-03T07:54:35;3.78;;;1.38;;
10216;SDS011;5152;59.674;16.838;2022-07-03T07:57:02;2.88;;;1.30;;
10216;SDS011;5152;59.674;16.838;2022-07-03T07:59:29;5.00;;;1.30;;
10216;SDS011;5152;59.674;16.838;2022-07-03T08:01:56;4.13;;;1.17;;
10216;SDS011;5152;59.674;16.838;2022-07-03T08:04:40;4.72;;;1.23;;
10216;SDS011;5152;59.674;16.838;2022-07-03T08:07:26;2.90;;;1.38;;
10216;SDS011;5152;59.674;16.838;2022-07-03T08:09:52;2.92;;;1.08;;
10216;SDS011;5152;59.674;16.838;2022-07-03T08:12:19;4.05;;;1.35;;
10216;SDS011;5152;59.674;16.838;2022-07-03T08:14:46;3.55;;;1.20;;
10216;SDS011;5152;59.674;16.838;2022-07-03T08:17:13;4.22;;;0.98;;
10216;SDS011;5152;59.674;16.838;2022-07-03T08:19:40;3.47;;;1.02;;
10216;SDS011;5152;59.674;16.838;2022-07-03T08:22:07;2.53;;;1.27;;
10216;SDS011;5152;59.674;16.838;2022-07-03T08:24:35;3.90;;;1.27;;
10216;SDS011;5152;59.674;16.838;2022-07-03T08:27:02;4.70;;;1.00;;
10216;SDS011;5152;59.674;16.838;2022-07-03T08:29:30;4.25;;;1.17;;
10216;SDS011;5152;59.674;16.838;2022-07-03T08:31:56;3.25;;;1.17;;
10216;SDS011;5152;59.674;16.838;2022-07-03T08:34:23;2.92;;;1.30;;
10216;SDS011;5152;59.674;16.838;2022-07-03T08:36:50;3.72;;;1.20;;
10216;SDS011;5152;59.674;16.838;2022-07-03T08:39:16;3.50;;;1.08;;
10216;SDS011;5152;59.674;16.838;2022-07-03T08:41:44;5.00;;;1.10;;
10216;SDS011;5152;59.674;16.838;2022-07-03T08:44:12;2.63;;;1.13;;
10216;SDS011;5152;59.674;16.838;2022-07-03T08:46:39;3.22;;;1.10;;
10216;SDS011;5152;59.674;16.838;2022-07-03T08:49:06;3.08;;;1.10;;
10216;SDS011;5152;59.674;16.838;2022-07-03T08:51:34;1.27;;;0.90;;
10216;SDS011;5152;59.674;16.838;2022-07-03T08:54:01;2.00;;;1.00;;
10216;SDS011;5152;59.674;16.838;2022-07-03T08:56:28;1.33;;;0.70;;
10216;SDS011;5152;59.674;16.838;2022-07-03T08:58:58;4.88;;;1.02;;
10216;SDS011;5152;59.674;16.838;2022-07-03T09:01:25;2.47;;;1.02;;
10216;SDS011;5152;59.674;16.838;2022-07-03T09:03:52;7.78;;;1.20;;
10216;SDS011;5152;59.674;16.838;2022-07-03T09:06:19;3.22;;;1.00;;
10216;SDS011;5152;59.674;16.838;2022-07-03T09:08:45;3.10;;;1.27;;
10216;SDS011;5152;59.674;16.838;2022-07-03T09:11:12;3.13;;;1.02;;
10216;SDS011;5152;59.674;16.838;2022-07-03T09:13:39;6.93;;;1.30;;
10216;SDS011;5152;59.674;16.838;2022-07-03T09:16:08;4.78;;;1.08;;
10216;SDS011;5152;59.674;16.838;2022-07-03T09:18:41;3.38;;;0.93;;
10216;SDS011;5152;59.674;16.838;2022-07-03T09:21:09;3.15;;;1.15;;
10216;SDS011;5152;59.674;16.838;2022-07-03T09:23:36;3.22;;;0.90;;
10216;SDS011;5152;59.674;16.838;2022-07-03T09:26:04;2.35;;;1.15;;
10216;SDS011;5152;59.674;16.838;2022-07-03T09:28:44;3.28;;;0.90;;
10216;SDS011;5152;59.674;16.838;2022-07-03T09:31:15;4.13;;;1.05;;
10216;SDS011;5152;59.674;16.838;2022-07-03T09:33:53;4.97;;;1.00;;
10216;SDS011;5152;59.674;16.838;2022-07-03T09:36:21;2.35;;;1.02;;
10216;SDS011;5152;59.674;16.838;2022-07-03T09:38:48;4.90;;;0.90;;
10216;SDS011;5152;59.674;16.838;2022-07-03T09:41:15;5.13;;;1.23;;
10216;SDS011;5152;59.674;16.838;2022-07-03T09:43:42;1.88;;;0.77;;
10216;SDS011;5152;59.674;16.838;2022-07-03T09:46:09;3.30;;;1.10;;
10216;SDS011;5152;59.674;16.838;2022-07-03T09:48:38;2.35;;;1.00;;
10216;SDS011;5152;59.674;16.838;2022-07-03T09:51:10;3.05;;;1.08;;
10216;SDS011;5152;59.674;16.838;2022-07-03T09:53:49;4.10;;;0.88;;
10216;SDS011;5152;59.674;16.838;2022-07-03T09:56:17;3.83;;;1.15;;
10216;SDS011;5152;59.674;16.838;2022-07-03T09:59:04;5.55;;;1.17;;
10216;SDS011;5152;59.674;16.838;2022-07-03T10:01:32;1.55;;;1.00;;
10216;SDS011;5152;59.674;16.838;2022-07-03T10:04:10;3.47;;;0.93;;
10216;SDS011;5152;59.674;16.838;2022-07-03T10:06:45;1.90;;;0.90;;
10216;SDS011;5152;59.674;16.838;2022-07-03T10:09:16;2.30;;;0.75;;
10216;SDS011;5152;59.674;16.838;2022-07-03T10:11:44;1.55;;;1.00;;
10216;SDS011;5152;59.674;16.838;2022-07-03T10:14:12;2.95;;;0.65;;
10216;SDS011;5152;59.674;16.838;2022-07-03T10:16:40;3.08;;;1.15;;
10216;SDS011;5152;59.674;16.838;2022-07-03T10:19:07;2.25;;;0.85;;
10216;SDS011;5152;59.674;16.838;2022-07-03T10:21:41;2.35;;;0.70;;
10216;SDS011;5152;59.674;16.838;2022-07-03T10:24:09;5.70;;;1.20;;
10216;SDS011;5152;59.674;16.838;2022-07-03T10:26:36;1.02;;;0.70;;
10216;SDS011;5152;59.674;16.838;2022-07-03T10:29:03;1.42;;;0.80;;
10216;SDS011;5152;59.674;16.838;2022-07-03T10:31:31;3.15;;;0.90;;
10216;SDS011;5152;59.674;16.838;2022-07-03T10:33:58;5.72;;;1.05;;
10216;SDS011;5152;59.674;16.838;2022-07-03T10:36:26;2.67;;;0.55;;
10216;SDS011;5152;59.674;16.838;2022-07-03T10:38:54;1.70;;;1.00;;
10216;SDS011;5152;59.674;16.838;2022-07-03T10:41:23;1.67;;;0.90;;
10216;SDS011;5152;59.674;16.838;2022-07-03T10:44:12;1.63;;;0.65;;
10216;SDS011;5152;59.674;16.838;2022-07-03T10:46:57;2.00;;;1.00;;
10216;SDS011;5152;59.674;16.838;2022-07-03T10:49:24;1.08;;;0.80;;
10216;SDS011;5152;59.674;16.838;2022-07-03T10:51:53;1.58;;;1.00;;
10216;SDS011;5152;59.674;16.838;2022-07-03T10:54:21;2.03;;;0.82;;
10216;SDS011;5152;59.674;16.838;2022-07-03T10:57:06;2.58;;;1.00;;
10216;SDS011;5152;59.674;16.838;2022-07-03T11:02:42;0.93;;;0.75;;
10216;SDS011;5152;59.674;16.838;2022-07-03T11:05:24;2.35;;;0.68;;
10216;SDS011;5152;59.674;16.838;2022-07-03T11:10:50;1.95;;;0.80;;
10216;SDS011;5152;59.674;16.838;2022-07-03T11:13:38;3.30;;;0.85;;
10216;SDS011;5152;59.674;16.838;2022-07-03T11:16:43;4.03;;;0.85;;
10216;SDS011;5152;59.674;16.838;2022-07-03T11:19:12;1.17;;;0.95;;
10216;SDS011;5152;59.674;16.838;2022-07-03T11:21:40;2.05;;;1.00;;
10216;SDS011;5152;59.674;16.838;2022-07-03T11:24:27;3.03;;;0.77;;
10216;SDS011;5152;59.674;16.838;2022-07-03T11:30:00;1.02;;;0.65;;
10216;SDS011;5152;59.674;16.838;2022-07-03T11:32:46;2.38;;;1.00;;
10216;SDS011;5152;59.674;16.838;2022-07-03T11:38:17;3.88;;;0.77;;
10216;SDS011;5152;59.674;16.838;2022-07-03T11:40:48;3.97;;;1.08;;
10216;SDS011;5152;59.674;16.838;2022-07-03T11:43:15;4.72;;;1.10;;
10216;SDS011;5152;59.674;16.838;2022-07-03T11:45:42;2.80;;;0.88;;
10216;SDS011;5152;59.674;16.838;2022-07-03T11:48:10;2.80;;;0.70;;
10216;SDS011;5152;59.674;16.838;2022-07-03T11:50:39;3.60;;;0.93;;
10216;SDS011;5152;59.674;16.838;2022-07-03T11:53:19;2.63;;;1.10;;
10216;SDS011;5152;59.674;16.838;2022-07-03T11:55:49;1.52;;;0.73;;
10216;SDS011;5152;59.674;16.838;2022-07-03T11:58:20;2.17;;;0.98;;
10216;SDS011;5152;59.674;16.838;2022-07-03T12:00:47;3.97;;;0.93;;
10216;SDS011;5152;59.674;16.838;2022-07-03T12:03:16;4.43;;;1.10;;
10216;SDS011;5152;59.674;16.838;2022-07-03T12:05:51;2.55;;;0.80;;
10216;SDS011;5152;59.674;16.838;2022-07-03T12:08:22;2.55;;;1.10;;
10216;SDS011;5152;59.674;16.838;2022-07-03T12:10:55;1.05;;;0.70;;
10216;SDS011;5152;59.674;16.838;2022-07-03T12:13:26;1.65;;;0.85;;
10216;SDS011;5152;59.674;16.838;2022-07-03T12:16:00;3.75;;;0.90;;
10216;SDS011;5152;59.674;16.838;2022-07-03T12:18:27;1.65;;;0.85;;
10216;SDS011;5152;59.674;16.838;2022-07-03T12:21:07;2.47;;;0.98;;
10216;SDS011;5152;59.674;16.838;2022-07-03T12:23:39;1.13;;;0.75;;
10216;SDS011;5152;59.674;16.838;2022-07-03T12:26:08;3.72;;;0.77;;
10216;SDS011;5152;59.674;16.838;2022-07-03T12:28:35;3.03;;;0.93;;
10216;SDS011;5152;59.674;16.838;2022-07-03T12:31:02;1.23;;;0.63;;
10216;SDS011;5152;59.674;16.838;2022-07-03T12:33:28;10.23;;;1.20;;
10216;SDS011;5152;59.674;16.838;2022-07-03T12:36:04;0.50;;;0.50;;
10216;SDS011;5152;59.674;16.838;2022-07-03T12:38:31;1.15;;;1.00;;
10216;SDS011;5152;59.674;16.838;2022-07-03T12:41:02;1.42;;;0.80;;
10216;SDS011;5152;59.674;16.838;2022-07-03T12:43:37;2.58;;;1.02;;
10216;SDS011;5152;59.674;16.838;2022-07-03T12:46:14;1.13;;;0.90;;
10216;SDS011;5152;59.674;16.838;2022-07-03T12:48:51;4.38;;;1.05;;
10216;SDS011;5152;59.674;16.838;2022-07-03T12:51:38;2.42;;;0.93;;
10216;SDS011;5152;59.674;16.838;2022-07-03T12:54:06;1.05;;;0.80;;
10216;SDS011;5152;59.674;16.838;2022-07-03T12:56:33;1.08;;;0.90;;
10216;SDS011;5152;59.674;16.838;2022-07-03T12:59:01;3.47;;;1.00;;
10216;SDS011;5152;59.674;16.838;2022-07-03T13:01:43;2.50;;;0.95;;
10216;SDS011;5152;59.674;16.838;2022-07-03T13:04:10;2.58;;;1.15;;
10216;SDS011;5152;59.674;16.838;2022-07-03T13:06:40;2.90;;;1.15;;
10216;SDS011;5152;59.674;16.838;2022-07-03T13:09:07;2.30;;;1.15;;
10216;SDS011;5152;59.674;16.838;2022-07-03T13:11:34;2.72;;;1.08;;
10216;SDS011;5152;59.674;16.838;2022-07-03T13:14:07;2.00;;;0.90;;
10216;SDS011;5152;59.674;16.838;2022-07-03T13:16:39;4.70;;;1.05;;
10216;SDS011;5152;59.674;16.838;2022-07-03T13:19:07;3.25;;;1.20;;
10216;SDS011;5152;59.674;16.838;2022-07-03T13:21:35;2.05;;;0.98;;
10216;SDS011;5152;59.674;16.838;2022-07-03T13:24:02;2.20;;;1.00;;
10216;SDS011;5152;59.674;16.838;2022-07-03T13:26:30;4.15;;;0.98;;
10216;SDS011;5152;59.674;16.838;2022-07-03T13:28:56;1.30;;;1.00;;
10216;SDS011;5152;59.674;16.838;2022-07-03T13:31:24;4.63;;;0.93;;
10216;SDS011;5152;59.674;16.838;2022-07-03T13:33:51;1.95;;;0.80;;
10216;SDS011;5152;59.674;16.838;2022-07-03T13:36:18;2.42;;;0.82;;
10216;SDS011;5152;59.674;16.838;2022-07-03T13:38:45;2.10;;;1.10;;
10216;SDS011;5152;59.674;16.838;2022-07-03T13:41:12;1.92;;;1.15;;
10216;SDS011;5152;59.674;16.838;2022-07-03T13:43:39;4.80;;;1.20;;
10216;SDS011;5152;59.674;16.838;2022-07-03T13:46:06;2.28;;;1.00;;
10216;SDS011;5152;59.674;16.838;2022-07-03T13:48:34;1.10;;;0.90;;
10216;SDS011;5152;59.674;16.838;2022-07-03T13:51:01;3.03;;;1.25;;
10216;SDS011;5152;59.674;16.838;2022-07-03T13:53:28;1.67;;;0.70;;
10216;SDS011;5152;59.674;16.838;2022-07-03T13:55:55;6.25;;;1.10;;
10216;SDS011;5152;59.674;16.838;2022-07-03T13:58:23;2.47;;;1.10;;
10216;SDS011;5152;59.674;16.838;2022-07-03T14:00:50;7.82;;;1.38;;
10216;SDS011;5152;59.674;16.838;2022-07-03T14:03:17;2.22;;;0.88;;
10216;SDS011;5152;59.674;16.838;2022-07-03T14:05:45;1.80;;;0.90;;
10216;SDS011;5152;59.674;16.838;2022-07-03T14:08:13;3.95;;;0.93;;
10216;SDS011;5152;59.674;16.838;2022-07-03T14:10:39;4.03;;;1.00;;
10216;SDS011;5152;59.674;16.838;2022-07-03T14:13:06;3.50;;;1.20;;
10216;SDS011;5152;59.674;16.838;2022-07-03T14:15:33;2.55;;;1.08;;
10216;SDS011;5152;59.674;16.838;2022-07-03T14:18:00;1.80;;;1.10;;
10216;SDS011;5152;59.674;16.838;2022-07-03T14:20:27;3.70;;;1.25;;
10216;SDS011;5152;59.674;16.838;2022-07-03T14:22:55;4.18;;;1.13;;
10216;SDS011;5152;59.674;16.838;2022-07-03T14:25:22;0.85;;;0.82;;
10216;SDS011;5152;59.674;16.838;2022-07-03T14:27:49;1.23;;;0.90;;
10216;SDS011;5152;59.674;16.838;2022-07-03T14:30:33;0.70;;;0.70;;
10216;SDS011;5152;59.674;16.838;2022-07-03T14:33:17;1.58;;;0.93;;
10216;SDS011;5152;59.674;16.838;2022-07-03T14:35:44;6.85;;;1.20;;
10216;SDS011;5152;59.674;16.838;2022-07-03T14:38:12;1.33;;;0.95;;
10216;SDS011;5152;59.674;16.838;2022-07-03T14:40:39;5.95;;;1.55;;
10216;SDS011;5152;59.674;16.838;2022-07-03T14:43:06;2.03;;;1.15;;
10216;SDS011;5152;59.674;16.838;2022-07-03T14:45:32;3.75;;;1.30;;
10216;SDS011;5152;59.674;16.838;2022-07-03T14:47:59;3.95;;;1.00;;
10216;SDS011;5152;59.674;16.838;2022-07-03T14:50:26;2.05;;;1.02;;
10216;SDS011;5152;59.674;16.838;2022-07-03T14:52:52;3.78;;;0.90;;
10216;SDS011;5152;59.674;16.838;2022-07-03T14:55:21;3.30;;;1.10;;
10216;SDS011;5152;59.674;16.838;2022-07-03T14:57:49;1.67;;;1.20;;
10216;SDS011;5152;59.674;16.838;2022-07-03T15:00:19;2.00;;;1.15;;
10216;SDS011;5152;59.674;16.838;2022-07-03T15:02:52;2.33;;;1.05;;
10216;SDS011;5152;59.674;16.838;2022-07-03T15:05:22;1.52;;;0.88;;
10216;SDS011;5152;59.674;16.838;2022-07-03T15:07:56;1.88;;;0.90;;
10216;SDS011;5152;59.674;16.838;2022-07-03T15:10:32;2.78;;;1.13;;
10216;SDS011;5152;59.674;16.838;2022-07-03T15:13:01;2.42;;;1.10;;